Time;durP1;ratioP1;P1;durP2;ratioP2;P2;SDS_P1;SDS_P2;PMS_P1;PMS_P2;Temp;Humidity;BMP_temperature;BMP_pressure;BME280_temperature;BME280_humidity;BME280_pressure;Samples;Min_cycle;Max_cycle;Signal;HPM_P1;HPM_P2
2022/02/18 00:00:57;;;;;;;13.52;2.60;;;;;;;4.75;96.50;92940.91;2090059;28;20024;-84
2022/02/18 00:01:59;;;;;;;12.18;2.75;;;;;;;5.05;95.21;92941.16;2087844;28;20070;-84
2022/02/18 00:03:01;;;;;;;22.40;2.92;;;;;;;4.88;96.12;92930.66;2087092;28;20161;-84
2022/02/18 00:04:03;;;;;;;14.15;2.60;;;;;;;4.86;96.01;92917.78;2090015;28;20032;-84
2022/02/18 00:05:05;;;;;;;11.43;2.38;;;;;;;4.77;97.73;92922.72;2096344;28;20108;-84
2022/02/18 00:06:07;;;;;;;17.02;2.67;;;;;;;4.83;97.13;92928.38;2098338;28;20024;-84
2022/02/18 00:07:08;;;;;;;18.83;2.63;;;;;;;4.75;98.90;92927.66;2089967;28;20369;-85
2022/02/18 00:08:09;;;;;;;19.10;3.83;;;;;;;4.84;98.10;92927.25;2090083;28;20031;-84
2022/02/18 00:09:11;;;;;;;14.35;2.33;;;;;;;4.77;99.87;92930.66;2098633;28;20028;-84
2022/02/18 00:10:12;;;;;;;17.38;3.45;;;;;;;4.73;98.54;92919.31;2098221;28;20366;-84
2022/02/18 00:11:13;;;;;;;11.73;2.45;;;;;;;4.84;99.53;92922.72;2090502;28;20040;-83
2022/02/18 00:12:14;;;;;;;17.95;3.10;;;;;;;4.89;98.98;92914.38;2106794;28;20054;-83
2022/02/18 00:13:16;;;;;;;17.67;2.90;;;;;;;4.84;98.44;92920.06;2115248;27;20027;-84
2022/02/18 00:14:17;;;;;;;14.15;2.80;;;;;;;4.70;100.00;92936.75;2123790;27;20030;-83
2022/02/18 00:15:18;;;;;;;16.63;2.92;;;;;;;4.76;100.00;92942.41;2123365;27;20800;-83
2022/02/18 00:16:19;;;;;;;17.38;3.53;;;;;;;4.66;100.00;92935.25;2106710;27;20114;-84
2022/02/18 00:17:20;;;;;;;15.00;2.40;;;;;;;4.60;99.91;92942.81;2113789;28;20531;-84
2022/02/18 00:18:21;;;;;;;16.20;2.50;;;;;;;4.81;100.00;92939.34;2112325;28;20051;-83
2022/02/18 00:19:22;;;;;;;15.98;2.45;;;;;;;4.72;100.00;92945.03;2094894;28;20033;-84
2022/02/18 00:20:23;;;;;;;19.77;2.88;;;;;;;5.02;95.55;92930.59;2102124;28;20381;-84
2022/02/18 00:21:24;;;;;;;15.48;2.90;;;;;;;4.98;97.25;92946.50;2108122;28;20019;-84
2022/02/18 00:22:27;;;;;;;14.80;2.47;;;;;;;5.10;96.54;92942.66;2118607;27;20424;-84
2022/02/18 00:23:30;;;;;;;15.70;2.50;;;;;;;4.88;99.58;92939.34;2114108;28;20376;-84
2022/02/18 00:24:31;;;;;;;12.73;2.67;;;;;;;5.01;96.87;92942.31;2098748;28;20098;-84
2022/02/18 00:25:34;;;;;;;16.92;3.03;;;;;;;4.82;98.17;92940.84;2098297;28;20416;-84
2022/02/18 00:26:35;;;;;;;20.35;3.03;;;;;;;4.64;100.00;92940.16;2106365;28;20115;-84
2022/02/18 00:27:40;;;;;;;16.63;2.42;;;;;;;4.69;99.85;92942.41;2106290;28;20024;-84
2022/02/18 00:28:42;;;;;;;15.30;3.00;;;;;;;4.85;97.96;92945.41;2098410;28;20069;-84
2022/02/18 00:29:43;;;;;;;16.15;2.25;;;;;;;4.88;98.60;92949.19;2098189;28;20497;-83
2022/02/18 00:30:44;;;;;;;18.88;2.92;;;;;;;4.82;99.74;92945.41;2106183;28;20036;-83
2022/02/18 00:31:45;;;;;;;16.48;2.58;;;;;;;5.04;97.88;92941.53;2097944;28;20028;-84
2022/02/18 00:32:46;;;;;;;12.65;2.47;;;;;;;5.01;97.15;92942.31;2098134;28;20140;-83
2022/02/18 00:33:48;;;;;;;15.38;3.22;;;;;;;4.85;97.80;92942.75;2097688;28;20493;-84
2022/02/18 00:34:49;;;;;;;17.30;3.80;;;;;;;4.68;100.00;92946.19;2097450;28;20028;-84
2022/02/18 00:35:50;;;;;;;22.52;2.88;;;;;;;4.79;98.83;92944.28;2097876;28;20056;-84
2022/02/18 00:36:50;;;;;;;15.80;2.83;;;;;;;4.83;97.67;92938.97;2098379;28;20054;-84
2022/02/18 00:37:54;;;;;;;16.30;2.58;;;;;;;4.77;99.29;92943.91;2098107;28;20020;-83
2022/02/18 00:38:55;;;;;;;13.73;2.38;;;;;;;4.58;100.00;92933.75;2098187;28;20500;-84
2022/02/18 00:39:56;;;;;;;10.90;2.20;;;;;;;4.62;100.00;92937.16;2089772;28;20116;-83
2022/02/18 00:40:57;;;;;;;13.88;2.63;;;;;;;4.71;100.00;92926.91;2089792;28;20028;-85
2022/02/18 00:41:59;;;;;;;23.58;3.38;;;;;;;4.70;100.00;92938.63;2098053;28;20505;-83
2022/02/18 00:43:00;;;;;;;19.90;2.90;;;;;;;5.10;96.09;92923.38;2097937;28;20055;-84
2022/02/18 00:44:01;;;;;;;16.25;3.13;;;;;;;5.00;97.38;92930.97;2106400;28;20103;-84
2022/02/18 00:45:02;;;;;;;16.95;2.58;;;;;;;4.97;96.69;92923.78;2098109;28;20449;-84
2022/02/18 00:46:03;;;;;;;17.42;2.65;;;;;;;4.99;98.68;92918.84;2106197;28;20024;-84
2022/02/18 00:47:05;;;;;;;10.50;2.13;;;;;;;4.93;97.84;92925.69;2098034;28;20086;-85
2022/02/18 00:48:06;;;;;;;14.32;2.60;;;;;;;4.75;99.71;92931.06;2098220;28;20055;-84
2022/02/18 00:49:07;;;;;;;14.55;2.97;;;;;;;4.63;100.00;92933.34;2097984;28;20047;-84
2022/02/18 00:50:09;;;;;;;14.20;3.08;;;;;;;4.58;100.00;92939.78;2098121;28;20515;-84
2022/02/18 00:51:10;;;;;;;12.88;2.97;;;;;;;4.56;100.00;92926.16;2098345;28;20028;-84
2022/02/18 00:52:11;;;;;;;19.38;2.85;;;;;;;4.48;100.00;92927.34;2097788;28;20074;-83
2022/02/18 00:53:12;;;;;;;16.50;2.20;;;;;;;4.40;100.00;92921.31;2098175;28;20785;-84
2022/02/18 00:54:13;;;;;;;16.35;2.35;;;;;;;4.43;100.00;92917.88;2089659;28;20026;-84
2022/02/18 00:55:14;;;;;;;20.70;4.13;;;;;;;4.44;100.00;92911.47;2096630;28;20468;-84
2022/02/18 00:56:15;;;;;;;13.88;2.70;;;;;;;4.33;100.00;92913.38;2093194;28;20035;-84
2022/02/18 00:57:16;;;;;;;10.10;2.25;;;;;;;4.39;100.00;92919.03;2089712;28;20021;-84
2022/02/18 00:58:20;;;;;;;15.77;2.65;;;;;;;4.37;100.00;92918.66;2098080;28;20028;-84
2022/02/18 00:59:21;;;;;;;16.33;2.72;;;;;;;4.46;100.00;92921.66;2098266;28;20027;-84
2022/02/18 01:00:22;;;;;;;15.85;2.40;;;;;;;4.64;100.00;92932.22;2097798;28;20032;-84
2022/02/18 01:01:23;;;;;;;20.17;2.65;;;;;;;4.44;100.00;92923.94;2106030;28;20106;-84
2022/02/18 01:02:24;;;;;;;16.77;2.88;;;;;;;4.31;100.00;92928.13;2097732;28;20029;-84
2022/02/18 01:03:25;;;;;;;14.30;2.85;;;;;;;4.22;100.00;92925.88;2097727;28;20409;-84
2022/02/18 01:04:26;;;;;;;17.52;3.05;;;;;;;4.11;100.00;92931.16;2089577;28;20028;-84
2022/02/18 01:05:27;;;;;;;12.75;2.20;;;;;;;4.08;100.00;92923.97;2097962;28;20394;-84
2022/02/18 01:06:28;;;;;;;17.17;3.42;;;;;;;4.12;100.00;92937.19;2089511;28;20473;-84
2022/02/18 01:07:29;;;;;;;15.57;3.10;;;;;;;4.13;100.00;92941.38;2098026;28;20028;-84
2022/02/18 01:08:30;;;;;;;16.00;3.17;;;;;;;4.10;100.00;92947.41;2109533;28;20106;-84
2022/02/18 01:09:32;;;;;;;10.55;2.47;;;;;;;4.06;100.00;92952.69;2106372;28;20024;-84
2022/02/18 01:10:33;;;;;;;20.60;2.97;;;;;;;4.02;100.00;92957.97;2106491;28;20469;-84
2022/02/18 01:11:34;;;;;;;13.32;2.40;;;;;;;4.06;100.00;92957.97;2105808;28;20721;-84
2022/02/18 01:12:35;;;;;;;14.63;3.05;;;;;;;4.02;100.00;92954.56;2114798;27;20027;-84
2022/02/18 01:13:36;;;;;;;19.23;3.10;;;;;;;3.97;100.00;92954.97;2114574;28;20024;-84
2022/02/18 01:14:39;;;;;;;17.08;2.97;;;;;;;3.98;100.00;92959.88;2109840;28;20024;-84
2022/02/18 01:15:39;;;;;;;15.02;2.63;;;;;;;3.94;100.00;92956.47;2098294;28;20055;-84
2022/02/18 01:16:40;;;;;;;13.25;2.63;;;;;;;3.92;100.00;92955.34;2105940;28;20042;-85
2022/02/18 01:17:41;;;;;;;20.15;3.53;;;;;;;3.92;100.00;92950.81;2097759;28;20500;-85
2022/02/18 01:18:42;;;;;;;16.45;2.75;;;;;;;3.93;100.00;92948.91;2106039;28;20032;-85
2022/02/18 01:19:44;;;;;;;19.15;3.22;;;;;;;4.09;100.00;92946.66;2105990;28;20028;-85
2022/02/18 01:20:44;;;;;;;12.88;2.60;;;;;;;4.04;100.00;92939.84;2097578;28;20031;-85
2022/02/18 01:21:46;;;;;;;17.00;3.20;;;;;;;3.97;100.00;92933.81;2089459;28;20509;-84
2022/02/18 01:22:47;;;;;;;16.02;2.97;;;;;;;4.09;100.00;92935.31;2093853;28;20489;-85
2022/02/18 01:23:48;;;;;;;20.23;3.72;;;;;;;4.03;100.00;92927.75;2097595;28;20027;-85
2022/02/18 01:24:49;;;;;;;13.43;2.55;;;;;;;3.93;100.00;92933.81;2106251;28;20079;-85
2022/02/18 01:25:50;;;;;;;12.60;2.58;;;;;;;3.89;100.00;92927.00;2114459;28;20024;-85
2022/02/18 01:26:51;;;;;;;13.18;2.65;;;;;;;3.84;100.00;92930.03;2097581;28;20179;-85
2022/02/18 01:27:55;;;;;;;15.55;2.63;;;;;;;3.79;100.00;92934.56;2097897;28;20020;-85
2022/02/18 01:28:56;;;;;;;20.83;2.78;;;;;;;3.72;100.00;92941.72;2098072;28;20028;-85
2022/02/18 01:29:57;;;;;;;17.75;2.70;;;;;;;3.68;100.00;92941.72;2097789;28;20036;-85
2022/02/18 01:30:58;;;;;;;15.23;3.08;;;;;;;3.61;100.00;92939.06;2108198;28;20051;-85
2022/02/18 01:31:59;;;;;;;18.73;2.92;;;;;;;3.54;100.00;92939.03;2105900;28;20121;-84
2022/02/18 01:33:00;;;;;;;17.92;2.85;;;;;;;3.50;100.00;92943.56;2097696;28;20020;-84
2022/02/18 01:34:01;;;;;;;18.17;3.22;;;;;;;3.40;100.00;92942.41;2105161;28;20086;-85
2022/02/18 01:35:05;;;;;;;13.00;2.45;;;;;;;3.42;100.00;92948.06;2104008;28;20103;-85
2022/02/18 01:36:06;;;;;;;18.42;3.05;;;;;;;3.36;100.00;92931.09;2098210;28;20052;-84
2022/02/18 01:37:08;;;;;;;11.07;2.58;;;;;;;3.34;100.00;92935.25;2091540;28;20435;-84
2022/02/18 01:38:09;;;;;;;14.77;2.90;;;;;;;3.25;100.00;92940.88;2097811;28;20497;-85
2022/02/18 01:39:10;;;;;;;18.08;2.78;;;;;;;3.44;100.00;92935.25;2105899;28;20032;-85
2022/02/18 01:40:12;;;;;;;15.40;3.65;;;;;;;3.35;100.00;92940.16;2105807;28;20519;-85
2022/02/18 01:41:13;;;;;;;9.52;2.33;;;;;;;3.38;100.00;92936.75;2096393;28;20155;-85
2022/02/18 01:42:14;;;;;;;13.60;2.60;;;;;;;3.28;100.00;92950.69;2097560;28;20050;-84
2022/02/18 01:43:15;;;;;;;16.35;3.22;;;;;;;3.20;100.00;92935.94;2097568;28;20020;-85
2022/02/18 01:44:39;;;;;;;13.82;3.55;;;;;;;3.05;100.00;92926.47;2105957;28;20434;-84
2022/02/18 01:45:40;;;;;;;16.73;2.45;;;;;;;3.02;100.00;92915.50;2114319;28;20092;-84
2022/02/18 01:46:41;;;;;;;13.70;2.60;;;;;;;3.35;100.00;92920.91;2105789;28;20503;-84
2022/02/18 01:47:42;;;;;;;15.25;2.40;;;;;;;3.22;100.00;92937.09;2109861;28;20061;-84
2022/02/18 01:48:43;;;;;;;13.02;2.97;;;;;;;3.16;100.00;92943.88;2105873;28;20030;-84
2022/02/18 01:49:45;;;;;;;18.48;2.40;;;;;;;3.10;100.00;92939.31;2089441;28;20021;-85
2022/02/18 01:50:46;;;;;;;16.92;2.95;;;;;;;3.09;100.00;92935.91;2089577;28;20100;-84
2022/02/18 01:51:47;;;;;;;14.55;3.05;;;;;;;3.00;100.00;92928.34;2097398;28;20024;-84
2022/02/18 01:52:51;;;;;;;17.20;2.97;;;;;;;2.88;100.00;92925.28;2105887;28;20047;-84
2022/02/18 01:53:54;;;;;;;12.85;2.85;;;;;;;2.82;100.00;92911.69;2099144;28;20024;-84
2022/02/18 01:54:55;;;;;;;13.13;2.75;;;;;;;2.86;100.00;92914.34;2099763;28;20722;-85
2022/02/18 01:56:15;;;;;;;12.02;3.05;;;;;;;2.86;100.00;92923.03;2113680;28;20027;-84
2022/02/18 01:57:16;;;;;;;10.43;2.63;;;;;;;2.85;100.00;92926.00;2099762;28;20114;-84
2022/02/18 01:58:23;;;;;;;11.35;2.53;;;;;;;3.07;100.00;92922.31;2097563;28;20355;-84
2022/02/18 01:59:26;;;;;;;15.90;2.60;;;;;;;2.90;100.00;92925.69;2105597;28;20056;-84
2022/02/18 02:00:29;;;;;;;13.57;2.40;;;;;;;2.84;100.00;92917.34;2089711;28;20021;-85
2022/02/18 02:01:30;;;;;;;13.30;2.72;;;;;;;2.89;100.00;92916.97;2089713;28;20025;-84
2022/02/18 02:02:31;;;;;;;15.38;2.40;;;;;;;2.84;100.00;92913.94;2105678;28;20504;-84
2022/02/18 02:03:32;;;;;;;13.27;2.63;;;;;;;2.78;100.00;92908.28;2105824;28;20469;-84
2022/02/18 02:04:33;;;;;;;13.65;2.88;;;;;;;2.76;100.00;92913.91;2097393;28;20078;-84
2022/02/18 02:05:35;;;;;;;15.38;2.90;;;;;;;2.73;100.00;92911.28;2097518;28;20131;-84
2022/02/18 02:06:35;;;;;;;16.23;2.83;;;;;;;2.71;100.00;92916.16;2097365;28;20679;-84
2022/02/18 02:07:39;;;;;;;14.85;2.40;;;;;;;2.58;100.00;92904.41;2097511;28;20028;-84
2022/02/18 02:08:40;;;;;;;11.45;2.08;;;;;;;2.67;100.00;92916.13;2105724;28;20438;-85
2022/02/18 02:11:20;;;;;;;;;;;;;;;2.63;100.00;92904.06;2148615;27;20117;-83
2022/02/18 02:12:21;;;;;;;14.38;3.30;;;;;;;2.55;100.00;92902.50;2129901;27;19983;-84
2022/02/18 02:13:38;;;;;;;11.23;2.58;;;;;;;2.56;100.00;92901.41;2118083;27;20015;-84
2022/02/18 02:14:39;;;;;;;16.52;2.72;;;;;;;2.51;100.00;92908.53;2121132;28;20111;-83
2022/02/18 02:15:40;;;;;;;10.57;3.33;;;;;;;2.47;100.00;92901.72;2104508;28;20526;-83
2022/02/18 02:16:42;;;;;;;14.93;2.53;;;;;;;2.45;100.00;92903.97;2112979;28;20241;-83
2022/02/18 02:17:44;;;;;;;11.48;2.40;;;;;;;2.40;100.00;92891.88;2121482;27;20472;-84
2022/02/18 02:18:45;;;;;;;11.73;2.55;;;;;;;2.41;100.00;92888.13;2129730;27;20050;-83
2022/02/18 02:19:46;;;;;;;16.02;2.42;;;;;;;2.49;100.00;92889.66;2112935;28;20020;-84
2022/02/18 02:20:47;;;;;;;11.45;2.95;;;;;;;2.43;100.00;92885.88;2112745;28;20016;-83
2022/02/18 02:21:54;;;;;;;17.63;3.17;;;;;;;2.39;100.00;92887.75;2121228;27;20114;-83
2022/02/18 02:22:55;;;;;;;18.25;2.80;;;;;;;2.53;100.00;92887.81;2119807;27;20027;-83
2022/02/18 02:23:56;;;;;;;21.48;3.42;;;;;;;2.47;100.00;92888.53;2121120;28;20435;-83
2022/02/18 02:24:58;;;;;;;11.48;2.10;;;;;;;2.40;100.00;92883.22;2112854;28;20024;-83
2022/02/18 02:25:59;;;;;;;11.32;2.35;;;;;;;2.43;100.00;92890.41;2111446;27;20028;-83
2022/02/18 02:27:00;;;;;;;14.60;2.33;;;;;;;2.40;100.00;92883.97;2121032;28;20046;-83
2022/02/18 02:28:01;;;;;;;14.75;2.75;;;;;;;2.33;100.00;92883.94;2121071;28;20472;-83
2022/02/18 02:29:02;;;;;;;13.10;2.35;;;;;;;2.35;100.00;92879.06;2104450;28;20448;-83
2022/02/18 02:30:05;;;;;;;17.50;3.17;;;;;;;2.41;100.00;92874.94;2104421;28;20028;-83
2022/02/18 02:31:06;;;;;;;12.05;2.35;;;;;;;2.37;100.00;92876.81;2111069;28;20028;-83
2022/02/18 02:32:07;;;;;;;16.27;2.80;;;;;;;2.43;100.00;92872.69;2112860;27;20629;-83
2022/02/18 02:33:08;;;;;;;14.02;2.25;;;;;;;2.40;100.00;92873.41;2111888;28;20079;-83
2022/02/18 02:34:14;;;;;;;12.13;2.28;;;;;;;2.33;100.00;92864.72;2111542;28;20059;-83
2022/02/18 02:35:15;;;;;;;13.57;2.25;;;;;;;2.26;100.00;92870.72;2113366;28;20106;-83
2022/02/18 02:36:16;;;;;;;14.40;2.35;;;;;;;2.38;100.00;92867.78;2104332;28;20031;-83
2022/02/18 02:37:19;;;;;;;14.23;2.25;;;;;;;2.27;100.00;92861.69;2104383;28;20074;-82
2022/02/18 02:38:20;;;;;;;13.23;2.55;;;;;;;2.08;100.00;92857.44;2113414;27;20016;-83
2022/02/18 02:39:21;;;;;;;11.23;1.98;;;;;;;2.05;100.00;92860.81;2112570;28;20570;-83
2022/02/18 02:40:22;;;;;;;18.23;2.75;;;;;;;2.01;100.00;92860.03;2121417;27;20027;-83
2022/02/18 02:41:23;;;;;;;6.75;1.92;;;;;;;2.03;100.00;92864.94;2112824;28;20039;-82
2022/02/18 02:42:24;;;;;;;12.50;2.58;;;;;;;1.95;100.00;92864.88;2111917;28;20020;-82
2022/02/18 02:43:27;;;;;;;10.43;2.88;;;;;;;1.86;100.00;92863.69;2118482;27;20015;-83
2022/02/18 02:44:28;;;;;;;15.73;2.80;;;;;;;1.85;100.00;92862.94;2112748;28;20114;-83
2022/02/18 02:45:29;;;;;;;12.57;2.45;;;;;;;1.88;100.00;92856.19;2112777;27;20020;-83
2022/02/18 02:46:30;;;;;;;15.23;2.60;;;;;;;1.86;100.00;92856.56;2112431;28;20055;-84
2022/02/18 02:47:31;;;;;;;13.13;2.15;;;;;;;1.87;100.00;92859.94;2104363;28;20020;-83
2022/02/18 02:48:39;;;;;;;10.32;2.20;;;;;;;1.86;100.00;92847.88;2112617;28;20027;-83
2022/02/18 02:49:47;;;;;;;10.05;2.83;;;;;;;1.84;100.00;92842.22;2113773;28;20030;-84
2022/02/18 02:50:55;;;;;;;15.05;2.92;;;;;;;1.73;100.00;92839.53;2114433;27;20031;-84
2022/02/18 02:51:56;;;;;;;13.18;2.35;;;;;;;1.70;100.00;92842.88;2122097;27;20020;-84
2022/02/18 02:52:57;;;;;;;13.00;3.67;;;;;;;1.68;100.00;92838.00;2120944;28;20080;-84
2022/02/18 02:53:58;;;;;;;11.50;2.55;;;;;;;1.95;100.00;92845.69;2121036;27;20176;-83
2022/02/18 02:54:59;;;;;;;12.45;2.97;;;;;;;1.81;100.00;92835.81;2121182;27;20584;-83
2022/02/18 02:56:00;;;;;;;16.10;2.53;;;;;;;1.76;100.00;92844.81;2120951;28;20047;-84
2022/02/18 02:57:02;;;;;;;11.20;2.33;;;;;;;1.67;100.00;92847.03;2112414;27;20080;-83
2022/02/18 02:58:03;;;;;;;13.05;2.40;;;;;;;1.63;100.00;92832.31;2112620;28;20034;-82
2022/02/18 02:59:04;;;;;;;17.67;2.70;;;;;;;1.58;100.00;92828.13;2108967;28;20479;-83
2022/02/18 03:00:06;;;;;;;13.93;2.63;;;;;;;1.54;100.00;92824.72;2112664;27;20035;-83
2022/02/18 03:01:07;;;;;;;10.57;2.70;;;;;;;1.54;100.00;92826.56;2112672;28;20215;-83
2022/02/18 03:02:08;;;;;;;14.38;2.42;;;;;;;1.54;100.00;92826.56;2115976;27;20026;-83
2022/02/18 03:03:09;;;;;;;9.82;2.20;;;;;;;1.57;100.00;92829.25;2129404;27;20444;-83
2022/02/18 03:04:10;;;;;;;12.18;2.38;;;;;;;1.73;100.00;92831.63;2120840;27;20100;-83
2022/02/18 03:05:12;;;;;;;10.65;2.45;;;;;;;1.69;100.00;92833.47;2104370;28;20047;-83
2022/02/18 03:06:13;;;;;;;11.77;2.63;;;;;;;1.58;100.00;92827.34;2112789;27;20119;-84
2022/02/18 03:07:14;;;;;;;12.23;2.78;;;;;;;1.43;100.00;92819.38;2112373;28;20023;-83
2022/02/18 03:08:16;;;;;;;14.65;2.40;;;;;;;1.35;100.00;92827.56;2104295;28;20028;-83
2022/02/18 03:09:17;;;;;;;7.28;1.90;;;;;;;1.39;100.00;92828.34;2109282;28;20056;-83
2022/02/18 03:10:18;;;;;;;8.98;1.77;;;;;;;1.35;100.00;92824.94;2104023;28;20555;-83
2022/02/18 03:11:19;;;;;;;13.95;3.05;;;;;;;1.44;100.00;92828.00;2103731;28;20072;-82
2022/02/18 03:12:20;;;;;;;10.60;2.70;;;;;;;1.38;100.00;92834.75;2103664;28;20016;-83
2022/02/18 03:13:21;;;;;;;16.67;2.17;;;;;;;1.35;100.00;92838.84;2095655;28;20043;-83
2022/02/18 03:14:24;;;;;;;10.95;2.38;;;;;;;1.43;100.00;92834.41;2103900;28;20024;-83
2022/02/18 03:15:25;;;;;;;11.23;2.28;;;;;;;1.36;100.00;92827.22;2104026;28;20100;-83
2022/02/18 03:16:26;;;;;;;10.20;2.10;;;;;;;1.33;100.00;92835.84;2087337;28;20021;-83
2022/02/18 03:17:27;;;;;;;11.88;2.40;;;;;;;1.27;100.00;92826.75;2095616;28;20032;-83
2022/02/18 03:18:28;;;;;;;10.20;2.10;;;;;;;1.19;100.00;92823.31;2095862;28;20032;-83
2022/02/18 03:19:30;;;;;;;12.57;2.25;;;;;;;1.17;100.00;92822.16;2095461;28;20359;-83
2022/02/18 03:20:30;;;;;;;16.13;2.38;;;;;;;1.20;100.00;92818.81;2090175;28;20066;-83
2022/02/18 03:21:31;;;;;;;11.55;2.25;;;;;;;1.23;100.00;92818.09;2095415;28;20028;-83
2022/02/18 03:22:32;;;;;;;14.90;2.40;;;;;;;1.17;100.00;92814.25;2099279;28;20021;-83
2022/02/18 03:23:34;;;;;;;12.45;2.33;;;;;;;1.21;100.00;92810.53;2101299;28;20083;-84
2022/02/18 03:24:35;;;;;;;9.45;1.90;;;;;;;1.28;100.00;92809.09;2100893;28;20032;-83
2022/02/18 03:25:36;;;;;;;16.20;2.75;;;;;;;1.25;100.00;92813.97;2106732;28;20028;-83
2022/02/18 03:26:38;;;;;;;13.25;2.30;;;;;;;1.33;100.00;92806.13;2106655;28;20038;-83
2022/02/18 03:27:42;;;;;;;10.13;2.63;;;;;;;1.32;100.00;92810.63;2106666;28;20085;-84
2022/02/18 03:28:50;;;;;;;12.13;2.42;;;;;;;1.29;100.00;92800.81;2098795;28;20020;-82
2022/02/18 03:29:51;;;;;;;12.98;2.58;;;;;;;1.23;100.00;92805.69;2084297;28;20036;-83
2022/02/18 03:30:52;;;;;;;11.07;2.00;;;;;;;1.33;100.00;92812.16;2106021;28;20104;-83
2022/02/18 03:31:53;;;;;;;13.90;2.28;;;;;;;1.36;100.00;92808.78;2115133;28;20149;-83
2022/02/18 03:32:54;;;;;;;11.05;2.20;;;;;;;1.35;100.00;92803.88;2102606;28;20020;-84
2022/02/18 03:33:55;;;;;;;16.02;2.55;;;;;;;1.35;100.00;92817.03;2090090;28;20028;-83
2022/02/18 03:34:56;;;;;;;12.70;2.50;;;;;;;1.39;100.00;92807.28;2090008;28;20047;-83
2022/02/18 03:35:58;;;;;;;13.32;2.47;;;;;;;1.48;100.00;92805.84;2098292;28;20016;-83
2022/02/18 03:36:59;;;;;;;9.00;1.90;;;;;;;1.47;100.00;92795.69;2106666;28;20030;-83
2022/02/18 03:38:00;;;;;;;11.98;2.20;;;;;;;1.51;100.00;92794.59;2098116;28;20017;-82
2022/02/18 03:39:01;;;;;;;10.30;2.33;;;;;;;1.56;100.00;92793.50;2089440;28;20056;-84
2022/02/18 03:40:03;;;;;;;10.00;2.03;;;;;;;1.73;100.00;92805.28;2088817;28;20029;-83
2022/02/18 03:41:05;;;;;;;12.50;2.55;;;;;;;1.74;100.00;92799.63;2098333;28;20469;-83
2022/02/18 03:42:06;;;;;;;11.73;2.13;;;;;;;1.74;100.00;92788.34;2098383;28;20052;-84
2022/02/18 03:43:08;;;;;;;13.52;2.50;;;;;;;1.71;100.00;92792.47;2089338;28;20064;-83
2022/02/18 03:44:09;;;;;;;12.75;2.40;;;;;;;1.83;100.00;92788.75;2099387;28;20055;-84
2022/02/18 03:45:10;;;;;;;12.90;2.20;;;;;;;1.77;100.00;92790.25;2106457;28;20024;-84
2022/02/18 03:46:11;;;;;;;12.07;2.90;;;;;;;1.75;100.00;92784.56;2098203;28;20119;-83
2022/02/18 03:47:12;;;;;;;8.85;2.05;;;;;;;1.79;100.00;92785.34;2106528;28;20024;-83
2022/02/18 03:48:13;;;;;;;8.27;2.17;;;;;;;1.86;100.00;92779.38;2106533;28;20020;-83
2022/02/18 03:49:16;;;;;;;17.63;2.20;;;;;;;1.97;100.00;92783.56;2106522;28;20028;-82
2022/02/18 03:50:17;;;;;;;13.40;2.47;;;;;;;1.93;100.00;92772.28;2100330;28;20056;-83
2022/02/18 03:51:18;;;;;;;11.63;2.67;;;;;;;2.01;100.00;92778.31;2098075;28;20146;-84
2022/02/18 03:52:19;;;;;;;9.02;2.05;;;;;;;2.00;100.00;92779.44;2093434;28;20518;-83
2022/02/18 03:53:20;;;;;;;16.40;3.25;;;;;;;2.05;100.00;92767.78;2097997;28;20032;-83
2022/02/18 03:54:23;;;;;;;15.07;2.83;;;;;;;2.06;100.00;92769.28;2098146;28;20024;-83
2022/02/18 03:55:24;;;;;;;13.90;2.10;;;;;;;2.11;100.00;92758.38;2098532;28;20029;-83
2022/02/18 03:56:25;;;;;;;13.75;2.88;;;;;;;2.09;100.00;92756.13;2098012;28;20027;-83
2022/02/18 03:57:26;;;;;;;13.80;3.42;;;;;;;2.06;100.00;92754.22;2098316;28;20024;-83
2022/02/18 03:58:27;;;;;;;13.63;2.95;;;;;;;2.20;100.00;92751.66;2094891;28;20052;-83
2022/02/18 03:59:28;;;;;;;17.63;3.50;;;;;;;2.43;100.00;92743.44;2094693;28;20027;-83
2022/02/18 04:00:29;;;;;;;11.68;2.70;;;;;;;2.36;100.00;92743.41;2089727;28;20365;-83
2022/02/18 04:01:30;;;;;;;14.70;2.40;;;;;;;2.27;100.00;92738.50;2089840;28;20067;-83
2022/02/18 04:02:31;;;;;;;15.80;2.45;;;;;;;2.19;100.00;92733.56;2089720;28;20063;-84
2022/02/18 04:03:32;;;;;;;14.00;2.78;;;;;;;2.13;100.00;92729.78;2089828;28;20439;-83
2022/02/18 04:04:34;;;;;;;14.90;2.65;;;;;;;2.21;100.00;92737.34;2089927;28;20036;-83
2022/02/18 04:05:35;;;;;;;15.85;2.63;;;;;;;2.16;100.00;92731.69;2089801;28;20488;-83
2022/02/18 04:06:36;;;;;;;11.32;2.22;;;;;;;2.28;100.00;92731.34;2089635;28;20025;-83
2022/02/18 04:07:37;;;;;;;14.20;2.28;;;;;;;2.24;100.00;92730.59;2098143;28;20152;-83
2022/02/18 04:08:38;;;;;;;10.65;2.53;;;;;;;2.20;100.00;92727.94;2106544;28;20246;-83
2022/02/18 04:09:39;;;;;;;14.43;2.70;;;;;;;2.22;100.00;92738.84;2097977;28;20039;-83
2022/02/18 04:10:40;;;;;;;12.93;2.25;;;;;;;2.34;100.00;92737.03;2092332;28;20056;-83
2022/02/18 04:11:41;;;;;;;13.93;2.30;;;;;;;2.45;100.00;92732.50;2097865;28;20029;-83
2022/02/18 04:12:42;;;;;;;18.95;2.35;;;;;;;2.39;100.00;92734.03;2106167;28;20027;-83
2022/02/18 04:13:43;;;;;;;13.88;2.47;;;;;;;2.53;100.00;92734.03;2097890;28;20043;-83
2022/02/18 04:14:44;;;;;;;10.10;2.00;;;;;;;2.60;100.00;92734.06;2098182;28;20068;-82
2022/02/18 04:15:45;;;;;;;17.80;2.75;;;;;;;2.53;100.00;92731.41;2098140;28;20120;-83
2022/02/18 04:16:46;;;;;;;11.10;2.58;;;;;;;2.59;100.00;92737.84;2098073;28;20024;-83
2022/02/18 04:17:47;;;;;;;16.90;3.38;;;;;;;2.47;100.00;92738.94;2100121;28;20016;-82
2022/02/18 04:18:48;;;;;;;11.85;2.70;;;;;;;2.38;100.00;92733.25;2106082;28;20166;-83
2022/02/18 04:19:49;;;;;;;12.02;2.78;;;;;;;2.36;100.00;92737.38;2106155;28;20027;-82
2022/02/18 04:20:50;;;;;;;18.55;3.20;;;;;;;2.40;100.00;92738.91;2089811;28;20017;-83
2022/02/18 04:21:51;;;;;;;15.98;2.95;;;;;;;2.36;100.00;92738.16;2092536;28;20062;-83
2022/02/18 04:22:52;;;;;;;17.85;3.00;;;;;;;2.34;100.00;92729.88;2089646;28;20020;-83
2022/02/18 04:23:53;;;;;;;11.50;2.30;;;;;;;2.35;100.00;92728.72;2089589;28;20471;-82
2022/02/18 04:24:54;;;;;;;14.70;3.25;;;;;;;2.30;100.00;92729.09;2101384;28;20157;-83
2022/02/18 04:25:54;;;;;;;13.70;2.75;;;;;;;2.31;100.00;92727.97;2094336;28;20021;-83
2022/02/18 04:26:56;;;;;;;14.02;3.13;;;;;;;2.27;100.00;92717.41;2105202;28;20028;-83
2022/02/18 04:28:02;;;;;;;12.40;2.88;;;;;;;2.25;100.00;92719.66;2106223;28;20051;-83
2022/02/18 04:29:03;;;;;;;16.48;3.17;;;;;;;2.23;100.00;92715.88;2104182;27;20016;-83
2022/02/18 04:30:06;;;;;;;11.27;2.88;;;;;;;2.21;100.00;92710.25;2106134;28;20027;-83
2022/02/18 04:31:06;;;;;;;11.20;2.47;;;;;;;2.29;100.00;92717.03;2106179;28;20450;-84
2022/02/18 04:32:08;;;;;;;18.15;2.40;;;;;;;2.38;100.00;92725.34;2106181;28;20066;-83
2022/02/18 04:33:11;;;;;;;11.70;3.60;;;;;;;2.39;100.00;92718.19;2107667;27;20024;-83
2022/02/18 04:34:12;;;;;;;14.85;2.33;;;;;;;2.31;100.00;92725.31;2113792;28;20031;-83
2022/02/18 04:35:13;;;;;;;15.18;2.88;;;;;;;2.29;100.00;92711.03;2097838;28;20449;-83
2022/02/18 04:36:14;;;;;;;16.45;2.75;;;;;;;2.30;100.00;92708.00;2106367;28;20031;-83
2022/02/18 04:37:15;;;;;;;34.28;20.70;;;;;;;2.38;100.00;92708.78;2095055;28;20021;-82
2022/02/18 04:38:16;;;;;;;24.52;8.27;;;;;;;2.47;100.00;92709.94;2097660;28;20023;-82
2022/02/18 04:39:17;;;;;;;19.77;7.30;;;;;;;2.57;100.00;92703.16;2097829;28;20111;-83
2022/02/18 04:40:19;;;;;;;16.23;4.10;;;;;;;2.54;100.00;92706.53;2097828;28;20035;-83
2022/02/18 04:41:20;;;;;;;14.30;5.10;;;;;;;2.51;100.00;92707.28;2097680;28;20020;-83
2022/02/18 04:42:21;;;;;;;16.77;3.78;;;;;;;2.58;100.00;92702.00;2089740;28;20394;-82
2022/02/18 04:43:22;;;;;;;16.05;3.60;;;;;;;2.56;100.00;92709.56;2106319;28;20141;-83
2022/02/18 04:44:23;;;;;;;14.02;3.45;;;;;;;2.48;100.00;92710.69;2106391;28;20071;-83
2022/02/18 04:45:24;;;;;;;12.95;4.63;;;;;;;2.42;100.00;92710.28;2097694;28;20028;-83
2022/02/18 04:46:26;;;;;;;18.23;4.60;;;;;;;2.38;100.00;92714.81;2099795;28;20024;-83
2022/02/18 04:47:27;;;;;;;15.98;3.45;;;;;;;2.43;100.00;92713.69;2106256;28;20111;-83
2022/02/18 04:48:28;;;;;;;11.50;4.13;;;;;;;2.37;100.00;92704.63;2105998;28;20034;-83
2022/02/18 04:49:29;;;;;;;13.40;3.78;;;;;;;2.41;100.00;92700.09;2105932;28;20119;-83